Bluebell, Utah
Current Conditions -  °F | °C
As of 10:53 PM on Thursday 27 Nov 2014 (Local Time) from KVEL Reporting Station
Clear Clear  
Wind Chill: 29°   Ceiling: Unl
Heat Index: 34°   Visibility: 10mi
Dew Point: 25°   Wind: 6mph
Humidity: 70%   Direction: 290°WNW
Pressure: 30.22"   Gusts: NA
Location:  40.36°N, 110.22°W
Report Text: KVEL 280553Z AUTO 29005KT 10SM CLR 01/M04 A3022 RMK AO2 SLP231 T00111039 10083 20000 57006
Loading
Personal Weather Stations






























Interactive Weather Map New forecast layout! Learn more

10-Day Weather Forecast

Advertisements
Track Severe Weather on mobile